KOZR/OZR METAR and TAF weather

Enter ICAO airport designator
Station Type Date Time Source
KOZR METAR 2022/05/26 04:56 UTC NOAA

KOZR 260456Z AUTO 14007KT 10SM FEW110 BKN160 21/18 A3006 RMK AO2 SLP180 T02120184


Station Type Date Time Source
KOZR Decoded METAR 2022/05/26 04:56 UTC NOAA

Cairns Army Air Field / Ozark, AL, United States (KOZR) 31-17N 085-43W
May 26, 2022 - 12:56 AM EDT / 2022.05.26 0456 UTC
Wind: from the SE (140 degrees) at 8 MPH (7 KT):0
Visibility: 10 mile(s):0
Sky conditions: mostly cloudy
Temperature: 70.2 F (21.2 C)
Dew Point: 65.1 F (18.4 C)
Relative Humidity: 84%
Pressure (altimeter): 30.06 in. Hg (1017 hPa)
ob: KOZR 260456Z AUTO 14007KT 10SM FEW110 BKN160 21/18 A3006 RMK AO2 SLP180 T02120184
cycle: 5

Station Type Date Time Source
KOZR TAF 2022/05/26 00:18 UTC NOAA

TAF TAF KOZR 260200Z 2600/2706 15008KT 9999 VCTS SCT020CB SCT120 QNH3000INS
BECMG 2604/2605 17007KT 9999 NSW BKN008 QNH3000INS
BECMG 2613/2614 15008KT 4800 SHRA VCTS BKN010 OVC050CB QNH2995INS
TEMPO 2614/2618 VRB20G28KT 1600 +TSRA SCT005 OVC015CB
FM270300 18003KT 6000 BR SCT005 OVC008 QNH2995INS TX27/2620Z TN21/2611Z

Example: see airport list